Historyczne dane pomiarowe

Dodano dane terminowe – wersja testowa.

Dane z okresu 1951-2019

Wersja bazy: 1.34 [2019-03-16, lista zmian], aktualizacja planowana na 2019-04-15

Dane meteo z obszaru Polski uzyskane na podstawie danych udostępnionych przez Instytut Meteorologii i Gospodarki Wodnej – Państwowy Instytut Badawczy.

 

Wybierz Datę:    

       

TemperaturaWilgotnośćWiatrCiśnienieOpadyŚniegCzas trwania zjawisk
 Stacja t tx tn tng RH VA  wxwx mslp ppp RRR   cm mm wxwxwxwxwxwxwx
1983-08-14 15.3 19.4 9.9 8.4 65.0- 3.0 3.0---- 0.0------------
1983-08-13 15.4 22.3 12.1 9.6 82.0- 6.7 2.7---- 10.5------------
1983-08-12 21.1 26.9 16.7 16.3 65.8- 3.3 1.0---- 1.4------------
1983-08-11 19.9 23.9 15.5 14.4 80.0- 7.7 0.3---- 1.3------------
1983-08-10 19.6 25.9 13.2 10.5 77.8- 3.3 1.7---- 2.2------------
1983-08-09 20.7 26.5 15.2 14.4 70.5- 3.3 2.3---- 0.0------------
1983-08-08 20.2 26.3 15.2 14.9 76.0- 7.0 2.3---- 0.4------------
1983-08-07 20.2 26.5 15.7 15.4 79.8- 7.0 1.3---- 5.4------------
1983-08-06 16.5 22.1 9.4 7.1 72.0- 5.7 0.7---- 8.1------------
1983-08-05 14.3 18.6 10.7 10.9 80.5- 6.7 0.7---- 0.0------------
1983-08-04 14.9 23.1 12.4 12.7 82.3- 8.0 1.3---- 7.3------------
1983-08-03 22.3 27.6 16.7 15.3 71.5- 6.0 2.3---- 0.0------------
1983-08-02 21.9 28.0 13.3 11.5 62.5- 4.0 3.3---- 0.0------------
1983-08-01 19.9 26.0 11.1 8.4 63.5- 0.0 3.7---- 0.0------------
1983-07-31 18.3 24.3 12.2 10.1 60.0- 3.0 0.7---- 0.0------------
1983-07-30 18.0 20.8 15.7 13.3 68.8- 8.0 6.0---- 0.3------------
1983-07-29 19.6 24.4 14.7 13.3 62.5- 5.7 3.0---- 0.0------------
1983-07-28 22.5 26.8 17.9 16.7 72.0- 4.3 2.3---- 0.0------------
1983-07-27 22.9 29.5 16.5 13.9 64.8- 3.0 0.7---- 0.8------------
1983-07-26 20.2 27.0 14.0 12.9 73.3- 3.3 4.7---- 0.0------------
1983-07-25 15.6 19.4 9.3 7.5 78.8- 7.0 2.3---- 0.0------------
1983-07-24 16.0 18.1 12.2 12.0 82.0- 7.3 0.0---- 0.3------------
1983-07-23 15.2 18.4 11.7 10.5 85.0- 6.7 2.0---- 7.9------------
1983-07-22 14.6 18.1 11.1 9.4 62.5- 6.0 6.0---- 0.8------------
1983-07-21 12.4 17.8 9.6 8.1 73.8- 7.0 5.0---- 1.2------------
1983-07-20 15.9 24.7 12.1 11.8 85.8- 7.3 2.7---- 14.3------------
1983-07-19 22.8 28.6 17.4 14.9 62.0- 4.7 2.3---- 3.4------------
1983-07-18 20.6 27.5 11.4 9.4 62.3- 2.0 0.3---- 0.0------------
1983-07-17 20.4 24.1 15.5 14.1 67.0- 3.7 1.7---- 0.0------------
1983-07-16 21.3 28.3 14.2 11.6 64.3- 2.0 0.7---- 0.0------------
1983-07-15 18.7 24.3 12.5 11.4 66.3- 1.0 2.3---- 0.0------------
1983-07-14 17.9 21.2 16.4 16.0 94.3- 7.0 0.3---- 39.2------------
1983-07-13 18.9 24.1 15.9 14.9 88.8- 6.7 0.0---- 1.9------------
1983-07-12 19.6 23.6 16.2 16.4 77.8- 5.3 2.7---- 2.6------------
1983-07-11 21.0 27.5 17.1 16.9 71.8- 7.0 1.0---- 24.2------------
1983-07-10 23.3 28.1 16.4 12.9 53.5- 3.3 1.3---- 0.0------------
1983-07-09 22.4 28.1 14.2 11.8 57.8- 3.0 1.7---- 0.0------------
1983-07-08 20.4 26.5 11.2 8.3 55.3- 0.7 0.0---- 0.0------------
1983-07-07 21.2 26.4 13.3 10.4 53.5- 1.0 3.7---- 0.0------------
1983-07-06 21.3 27.5 11.7 9.1 60.3- 3.7 2.0---- 0.0------------
1983-07-05 19.7 24.7 13.7 11.4 64.5- 3.3 2.0---- 0.0------------
1983-07-04 20.0 26.6 11.1 8.4 62.3- 2.3 1.0---- 0.0------------
1983-07-03 18.8 23.6 12.2 10.9 62.0- 2.0 3.0---- 0.0------------
1983-07-02 19.8 24.6 16.0 14.4 78.3- 6.7 4.7---- 0.0------------
1983-07-01 20.9 27.0 13.4 11.3 65.0- 3.3 0.0---- 2.3------------
1983-06-30 17.1 23.3 8.6 6.0 69.0- 4.7 0.3---- 0.0------------
1983-06-29 15.6 20.1 10.0 6.8 56.8- 2.3 2.0---- 0.0------------
1983-06-28 17.4 20.6 14.2 13.7 82.0- 8.0 3.7---- 17.6------------
1983-06-27 20.5 27.6 14.2 11.4 77.3- 7.3 2.0---- 3.2------------
1983-06-26 20.6 25.4 16.2 14.4 65.8- 5.0 2.0---- 0.0------------
1983-06-25 22.0 29.5 13.1 9.7 54.3- 3.7 3.0---- 0.5------------
1983-06-24 18.3 26.2 8.2 3.0 53.5- 0.7 1.0---- 0.0------------
1983-06-23 15.1 21.1 5.7 2.3 54.0- 0.0 0.0---- 0.0------------
1983-06-22 14.2 21.1 7.7 5.7 52.0- 0.0 1.0---- 0.0------------
1983-06-21 19.1 24.6 11.7 8.4 59.8- 2.0 3.3---- 0.0------------
1983-06-20 19.3 24.4 15.0 13.8 69.8- 5.3 4.0---- 0.0------------
1983-06-19 17.1 21.6 13.7 13.3 88.0- 8.0 4.7---- 0.0------------
1983-06-18 14.5 16.9 11.3 11.0 84.3- 8.0 3.3---- 4.5------------
1983-06-17 13.7 18.1 6.4 2.6 69.8- 8.0 2.7---- 1.9------------
1983-06-16 13.5 16.1 10.9 11.3 80.5- 6.7 2.3---- 0.3------------
384.0 ms

 

Źródłem pochodzenia danych jest Instytut Meteorologii i Gospodarki Wodnej – Państwowy Instytut Badawczy. Dane Instytutu Meteorologii i Gospodarki Wodnej – Państwowego Instytutu Badawczego zostały przetworzone.

Dane źródłowe można odnaleźć na stronie https://dane.imgw.pl